Chester, Canada
Current Conditions -  °F | °C
As of 10:00 PM on Wednesday 22 Oct 2014 (Local Time) from CYAW Reporting Station
Light Rain Light Rain  
Wind Chill: 54°   Ceiling: 1000
Heat Index: 54°   Visibility: 6mi
Dew Point: 52°   Wind: 20mph
Humidity: 94%   Direction: 70°ENE
Pressure: 30.16"   Gusts: 29mph
Location:  44.53°N, 64.23°W
Report Text: CYAW 230100Z 07017G25KT 6SM -RA BR OVC010 12/11 A3016 RMK SF8 DA-330FT CIG VRB 7-14 SLP216
Loading
Personal Weather Stations






























Interactive Weather Map
Tropical Storm Tracking
New forecast layout! Learn more

10-Day Weather Forecast

Advertisements
Track Severe Weather on mobile